TimeEDT,TemperatureF,Dew PointF,Humidity,Sea Level PressureIn,VisibilityMPH,Wind Direction,Wind SpeedMPH,Gust SpeedMPH,PrecipitationIn,Events,Conditions,WindDirDegrees,DateUTC
12:15 AM,78.8,71.6,78,29.86,10.0,West,6.9,-,N/A,,Clear,270,2013-06-27 04:15:00
12:35 AM,78.8,71.6,78,29.87,10.0,West,8.1,-,N/A,,Scattered Clouds,260,2013-06-27 04:35:00
12:55 AM,78.8,71.6,78,29.88,10.0,West,8.1,-,N/A,,Clear,260,2013-06-27 04:55:00
1:15 AM,77.0,71.6,83,29.87,10.0,West,8.1,-,N/A,,Clear,260,2013-06-27 05:15:00
1:35 AM,77.0,71.6,83,29.87,10.0,WSW,6.9,-,N/A,,Clear,250,2013-06-27 05:35:00
1:55 AM,77.0,71.6,83,29.86,10.0,SW,5.8,-,N/A,,Clear,230,2013-06-27 05:55:00
2:15 AM,77.0,71.6,83,29.86,10.0,WSW,6.9,-,N/A,,Clear,240,2013-06-27 06:15:00
2:35 AM,75.2,69.8,83,29.86,10.0,WSW,9.2,-,N/A,,Scattered Clouds,240,2013-06-27 06:35:00
2:55 AM,75.2,69.8,83,29.86,10.0,WSW,8.1,-,N/A,,Clear,240,2013-06-27 06:55:00
3:15 AM,75.2,69.8,83,29.86,10.0,WSW,4.6,-,N/A,,Clear,250,2013-06-27 07:15:00
3:35 AM,75.2,69.8,83,29.87,10.0,WSW,5.8,-,N/A,,Clear,240,2013-06-27 07:35:00
3:55 AM,75.2,69.8,83,29.86,10.0,SW,6.9,-,N/A,,Clear,220,2013-06-27 07:55:00
6:15 AM,73.4,69.8,88,29.86,10.0,SSW,4.6,-,N/A,,Clear,210,2013-06-27 10:15:00
6:35 AM,73.4,69.8,88,29.86,10.0,SW,3.5,-,N/A,,Clear,220,2013-06-27 10:35:00
6:55 AM,75.2,69.8,83,29.85,10.0,SSW,4.6,-,N/A,,Clear,210,2013-06-27 10:55:00
7:15 AM,75.2,71.6,89,29.85,10.0,South,4.6,-,N/A,,Clear,190,2013-06-27 11:15:00
7:35 AM,77.0,71.6,83,29.86,5.0,SSW,5.8,-,N/A,,Haze,210,2013-06-27 11:35:00
7:56 AM,78.8,69.8,74,29.85,10.0,SSW,5.8,-,N/A,,Clear,210,2013-06-27 11:56:00
8:15 AM,80.6,69.8,70,29.85,10.0,SW,8.1,-,N/A,,Clear,220,2013-06-27 12:15:00
8:35 AM,80.6,69.8,70,29.84,10.0,South,6.9,-,N/A,,Clear,190,2013-06-27 12:35:00
8:55 AM,82.4,69.8,66,29.83,10.0,SSW,5.8,-,N/A,,Clear,200,2013-06-27 12:55:00
9:17 AM,82.4,69.8,66,29.82,10.0,SSW,8.1,-,N/A,,Clear,200,2013-06-27 13:17:00
9:35 AM,84.2,69.8,62,29.82,10.0,SW,6.9,-,N/A,,Clear,220,2013-06-27 13:35:00
9:55 AM,84.2,69.8,62,29.82,10.0,SW,11.5,18.4,N/A,,Clear,230,2013-06-27 13:55:00
10:15 AM,84.2,71.6,66,29.82,10.0,SW,10.4,-,N/A,,Clear,230,2013-06-27 14:15:00
10:35 AM,84.2,69.8,62,29.81,10.0,SSW,11.5,16.1,N/A,,Clear,210,2013-06-27 14:35:00
10:55 AM,86.0,71.6,62,29.80,10.0,South,8.1,-,N/A,,Clear,190,2013-06-27 14:55:00
11:15 AM,87.8,73.4,62,29.80,10.0,SSE,9.2,-,N/A,,Clear,150,2013-06-27 15:15:00
11:35 AM,87.8,73.4,62,29.79,10.0,South,10.4,16.1,N/A,,Clear,180,2013-06-27 15:35:00
11:55 AM,86.0,73.4,66,29.79,10.0,South,9.2,-,N/A,,Clear,170,2013-06-27 15:55:00
12:15 PM,84.2,73.4,70,29.78,10.0,South,10.4,-,N/A,,Clear,170,2013-06-27 16:15:00
12:35 PM,84.2,71.6,66,29.78,10.0,South,9.2,17.3,N/A,,Clear,180,2013-06-27 16:35:00
12:55 PM,86.0,73.4,66,29.77,10.0,SSE,10.4,20.7,N/A,,Clear,160,2013-06-27 16:55:00
1:17 PM,86.0,73.4,66,29.77,10.0,South,10.4,18.4,N/A,,Clear,180,2013-06-27 17:17:00
1:35 PM,87.8,73.4,62,29.76,10.0,South,13.8,19.6,N/A,,Clear,170,2013-06-27 17:35:00
1:55 PM,87.8,73.4,62,29.76,10.0,South,12.7,19.6,N/A,,Clear,190,2013-06-27 17:55:00
2:16 PM,87.8,73.4,62,29.75,10.0,South,10.4,21.9,N/A,,Scattered Clouds,180,2013-06-27 18:16:00
2:35 PM,87.8,75.2,66,29.74,10.0,South,11.5,19.6,N/A,,Scattered Clouds,180,2013-06-27 18:35:00
2:55 PM,87.8,75.2,66,29.73,10.0,South,10.4,20.7,N/A,,Clear,170,2013-06-27 18:55:00
3:15 PM,87.8,75.2,66,29.73,10.0,SSW,11.5,17.3,N/A,,Clear,200,2013-06-27 19:15:00
3:35 PM,86.0,75.2,70,29.72,10.0,South,9.2,-,N/A,,Mostly Cloudy,180,2013-06-27 19:35:00
3:55 PM,89.6,73.4,59,29.70,10.0,SW,19.6,26.5,N/A,,Mostly Cloudy,220,2013-06-27 19:55:00
4:15 PM,91.4,73.4,55,29.69,10.0,SW,15.0,26.5,N/A,,Scattered Clouds,230,2013-06-27 20:15:00
4:35 PM,91.4,69.8,49,29.69,10.0,SW,19.6,27.6,N/A,,Clear,230,2013-06-27 20:35:00
4:56 PM,91.4,71.6,52,29.69,10.0,SW,20.7,27.6,N/A,,Clear,220,2013-06-27 20:56:00
5:16 PM,91.4,69.8,49,29.68,10.0,SW,13.8,29.9,N/A,,Clear,230,2013-06-27 21:16:00
5:35 PM,91.4,69.8,49,29.69,10.0,SW,19.6,28.8,N/A,,Clear,230,2013-06-27 21:35:00
5:55 PM,89.6,69.8,52,29.68,10.0,SW,15.0,25.3,N/A,,Clear,230,2013-06-27 21:55:00
6:15 PM,89.6,69.8,52,29.69,10.0,SW,15.0,24.2,N/A,,Clear,230,2013-06-27 22:15:00
6:35 PM,87.8,69.8,55,29.69,10.0,SSW,9.2,15.0,N/A,,Clear,210,2013-06-27 22:35:00
6:55 PM,87.8,69.8,55,29.69,10.0,SW,11.5,-,N/A,,Scattered Clouds,230,2013-06-27 22:55:00
7:15 PM,87.8,71.6,58,29.68,10.0,SW,11.5,17.3,N/A,,Mostly Cloudy,230,2013-06-27 23:15:00
7:35 PM,87.8,73.4,62,29.69,10.0,South,5.8,-,N/A,Thunderstorm,Mostly Cloudy,180,2013-06-27 23:35:00
7:55 PM,86.0,71.6,62,29.68,10.0,South,3.5,-,N/A,,Scattered Clouds,170,2013-06-27 23:55:00
8:15 PM,84.2,73.4,70,29.69,10.0,SW,6.9,-,N/A,Thunderstorm,Thunderstorm,220,2013-06-28 00:15:00
8:35 PM,78.8,71.6,78,29.71,5.0,WSW,12.7,25.3,0.19,Rain-Thunderstorm,Heavy Thunderstorms and Rain,250,2013-06-28 00:35:00
8:55 PM,77.0,71.6,83,29.70,10.0,SW,6.9,-,0.20,Thunderstorm,Scattered Clouds,220,2013-06-28 00:55:00
9:15 PM,78.8,73.4,83,29.71,10.0,SW,5.8,-,N/A,,Scattered Clouds,230,2013-06-28 01:15:00
9:35 PM,78.8,73.4,83,29.71,10.0,SW,8.1,-,N/A,,Scattered Clouds,230,2013-06-28 01:35:00
9:55 PM,78.8,73.4,83,29.71,10.0,SW,8.1,-,N/A,,Scattered Clouds,220,2013-06-28 01:55:00
10:15 PM,78.8,73.4,83,29.71,10.0,SSW,11.5,17.3,N/A,Thunderstorm,Clear,210,2013-06-28 02:15:00
10:35 PM,78.8,73.4,83,29.72,10.0,SSW,10.4,-,N/A,,Clear,210,2013-06-28 02:35:00
10:55 PM,78.8,73.4,83,29.71,10.0,SSW,10.4,16.1,N/A,,Scattered Clouds,210,2013-06-28 02:55:00
11:15 PM,78.8,73.4,83,29.72,7.0,SW,11.5,17.3,0.01,Rain,Heavy Rain,230,2013-06-28 03:15:00
11:35 PM,78.8,73.4,83,29.71,10.0,SW,11.5,-,0.02,Rain,Light Rain,220,2013-06-28 03:35:00
11:55 PM,78.8,73.4,83,29.70,10.0,SW,12.7,-,0.02,,Scattered Clouds,220,2013-06-28 03:55:00